To NAV CANADA Home Page Login to a new session Search on AWWS site Feedback and Comments Disclaimer Vers la page française équivalente Tips FAQ What's new on the site To the Forecasts and Observations / NOTAM section To "File a Flight Plan" website Publications and other links Update of the User's profile FIC Telephone Numbers My Weather Data Folder Route Weather Data Regional Weather Data Local Weather Data To the Forecasts and Observations / NOTAM section
Request Generated 05/04/2015 at 14:03:09 UTC . Weather information available at that time is displayed.

METAR/TAF

REPULSE BAY/NU    

METAR CYUT 041400Z 03015KT 20SM -SG OVC014 M05/M08 A2947 RMK ST8 BLN
DSAPRD 1700FT SLP980=
SPECI CYUT 041333Z 03008KT 20SM -SG OVC014 M06/M08 A2947 RMK ST8 BLN
DSAPRD 1500FT SLP981=
METAR CYUT 041300Z 06013KT 15SM SCT012 OVC030 M06/M08 A2947 RMK
ST3SC5 SLP981=
SPECI CYUT 041253Z 07012KT 15SM SCT012 OVC030 M06/M08 A2947 RMK
ST4SC4 SLP982=
METAR CYUT 041200Z 06011KT 4SM -SN OVC030 M06/M07 A2947 RMK SC8 RIME
ON INDICATOR -5.7/-12.8/TR/15.0 SNW CVR/TRACE LOOSE SLP981=

TAF CYUT 041338Z 0414/0422 06015KT P6SM SCT012 OVC030 TEMPO 0414/0419
4SM -SN BKN012 OVC030
BECMG 0417/0419 36020G30KT
FM041900 36020G30KT 1SM -SN OVC012 TEMPO 0419/0422 4SM -SN
RMK NXT FCST BY 041900Z=
Your time UTC time
Weather data provided by Environment Canada and NAV CANADA